Time;durP1;ratioP1;P1;durP2;ratioP2;P2;SDS_P1;SDS_P2;PMS_P1;PMS_P2;Temp;Humidity;BMP_temperature;BMP_pressure;BME280_temperature;BME280_humidity;BME280_pressure;Samples;Min_cycle;Max_cycle;Signal;HPM_P1;HPM_P2
2024/03/16 00:01:32;;;;;;;20.60;3.53;;;11.10;99.90;;;;;;4974328;29;20104;-90
2024/03/16 00:03:59;;;;;;;14.65;3.30;;;11.20;99.90;;;;;;4968054;29;20511;-91
2024/03/16 00:06:26;;;;;;;27.67;3.60;;;11.10;99.90;;;;;;4968601;29;20031;-91
2024/03/16 00:08:52;;;;;;;19.40;3.55;;;11.50;99.90;;;;;;4964408;29;20064;-91
2024/03/16 00:11:19;;;;;;;25.63;3.70;;;11.10;99.90;;;;;;4971867;29;20051;-91
2024/03/16 00:13:46;;;;;;;19.63;3.60;;;11.10;99.90;;;;;;4970788;29;20122;-90
2024/03/16 00:16:13;;;;;;;20.67;3.45;;;11.10;99.90;;;;;;4963286;29;20121;-90
2024/03/16 00:18:39;;;;;;;24.45;4.63;;;11.00;99.90;;;;;;4973998;29;20035;-90
2024/03/16 00:21:06;;;;;;;18.45;3.75;;;11.10;99.90;;;;;;4966080;29;20039;-90
2024/03/16 00:23:34;;;;;;;25.35;4.20;;;11.10;99.90;;;;;;4967953;29;20089;-90
2024/03/16 00:26:01;;;;;;;23.60;3.88;;;11.00;99.90;;;;;;4967603;29;20051;-91
2024/03/16 00:28:27;;;;;;;23.52;3.95;;;11.10;99.90;;;;;;4964972;29;20045;-91
2024/03/16 00:30:54;;;;;;;29.65;5.45;;;11.00;99.90;;;;;;4973610;29;20062;-91
2024/03/16 00:33:21;;;;;;;25.70;4.70;;;11.10;99.90;;;;;;4969422;29;20511;-90
2024/03/16 00:35:48;;;;;;;19.25;4.15;;;11.00;99.90;;;;;;4973577;29;20556;-90
2024/03/16 00:38:17;;;;;;;24.70;4.78;;;11.10;99.90;;;;;;4973558;29;20082;-91
2024/03/16 00:40:43;;;;;;;26.83;5.32;;;11.10;99.90;;;;;;4964220;29;20052;-91
2024/03/16 00:43:10;;;;;;;25.38;4.82;;;11.00;99.90;;;;;;4974026;29;20523;-91
2024/03/16 00:45:37;;;;;;;23.55;4.53;;;11.00;99.90;;;;;;4974033;29;20043;-91
2024/03/16 00:48:04;;;;;;;24.40;5.00;;;11.10;99.90;;;;;;4973286;29;20043;-91
2024/03/16 00:50:34;;;;;;;28.25;4.53;;;11.10;99.90;;;;;;4968946;29;20098;-91
2024/03/16 00:53:01;;;;;;;20.20;4.10;;;11.00;99.90;;;;;;4973713;29;20047;-91
2024/03/16 00:55:28;;;;;;;28.58;4.93;;;11.00;99.90;;;;;;4973357;29;20453;-91
2024/03/16 00:57:54;;;;;;;31.55;5.03;;;11.40;99.90;;;;;;4973298;29;20039;-91
2024/03/16 01:00:21;;;;;;;16.35;3.92;;;11.40;99.90;;;;;;4972996;29;20043;-92
2024/03/16 01:02:48;;;;;;;24.98;4.80;;;10.90;99.90;;;;;;4971712;29;20039;-90
2024/03/16 01:05:15;;;;;;;23.92;5.55;;;11.30;99.90;;;;;;4963564;29;20127;-91
2024/03/16 01:07:42;;;;;;;25.45;5.25;;;10.80;99.90;;;;;;4969316;29;20118;-91
2024/03/16 01:10:11;;;;;;;27.55;5.65;;;10.80;99.90;;;;;;4972942;29;20054;-91
2024/03/16 01:12:38;;;;;;;32.28;6.45;;;10.80;99.90;;;;;;4972630;29;20086;-91
2024/03/16 01:15:05;;;;;;;32.15;5.57;;;10.80;99.90;;;;;;4972803;29;20531;-90
2024/03/16 01:17:32;;;;;;;26.98;5.38;;;10.80;99.90;;;;;;4968642;29;20075;-90
2024/03/16 01:19:59;;;;;;;29.85;6.18;;;10.80;99.90;;;;;;4972529;29;20083;-91
2024/03/16 01:22:26;;;;;;;26.83;6.43;;;11.40;99.90;;;;;;4965021;29;20036;-91
2024/03/16 01:24:52;;;;;;;24.83;6.70;;;10.90;99.90;;;;;;4968034;29;20485;-90
2024/03/16 01:27:19;;;;;;;31.30;6.97;;;11.40;99.90;;;;;;4964196;29;20515;-91
2024/03/16 01:29:46;;;;;;;35.38;7.15;;;10.70;99.90;;;;;;4966576;29;20043;-90
2024/03/16 01:32:13;;;;;;;26.92;6.35;;;10.70;99.90;;;;;;4964588;29;20051;-90
2024/03/16 01:34:39;;;;;;;28.30;6.15;;;10.70;99.90;;;;;;4969516;29;20218;-90
2024/03/16 01:37:06;;;;;;;32.03;7.10;;;10.70;99.90;;;;;;4988742;29;20039;-90
2024/03/16 01:39:33;;;;;;;25.35;5.90;;;11.30;99.90;;;;;;4969520;29;20390;-90
2024/03/16 01:41:59;;;;;;;27.13;7.20;;;10.70;99.90;;;;;;4972247;29;20043;-91
2024/03/16 01:44:27;;;;;;;30.48;6.72;;;10.70;99.90;;;;;;4972969;29;20138;-90
2024/03/16 01:46:54;;;;;;;32.45;6.90;;;10.60;99.90;;;;;;4972972;29;20054;-90
2024/03/16 01:49:21;;;;;;;27.83;6.40;;;10.60;99.90;;;;;;4971846;29;20035;-90
2024/03/16 01:51:48;;;;;;;30.98;7.18;;;10.60;99.90;;;;;;4957469;29;20031;-90
2024/03/16 01:54:14;;;;;;;34.35;7.50;;;10.60;99.90;;;;;;4971082;29;20062;-91
2024/03/16 01:56:41;;;;;;;31.10;7.88;;;10.60;99.90;;;;;;4972615;29;20047;-90
2024/03/16 01:59:08;;;;;;;28.95;8.30;;;10.50;99.90;;;;;;4972763;29;20039;-90
2024/03/16 02:01:35;;;;;;;25.27;8.45;;;10.50;99.90;;;;;;4966983;29;20126;-91
2024/03/16 02:04:03;;;;;;;27.05;8.05;;;10.40;99.90;;;;;;4972496;29;20035;-91
2024/03/16 02:06:30;;;;;;;26.90;7.28;;;11.00;99.90;;;;;;4968284;29;20485;-91
2024/03/16 02:08:59;;;;;;;32.25;8.25;;;10.40;99.90;;;;;;4972708;29;20043;-91
2024/03/16 02:11:26;;;;;;;39.75;8.52;;;10.40;99.90;;;;;;4959911;29;20047;-91
2024/03/16 02:13:53;;;;;;;26.30;7.60;;;10.30;99.90;;;;;;4972641;29;20054;-91
2024/03/16 02:16:19;;;;;;;36.70;8.82;;;10.40;99.90;;;;;;4969298;29;20043;-91
2024/03/16 02:18:46;;;;;;;39.55;8.77;;;10.40;99.90;;;;;;4972607;29;20489;-91
2024/03/16 02:21:13;;;;;;;28.73;7.32;;;10.60;99.90;;;;;;4961175;29;20430;-91
2024/03/16 02:23:39;;;;;;;27.05;7.30;;;11.00;99.90;;;;;;4971457;29;20094;-91
2024/03/16 02:26:07;;;;;;;32.97;6.30;;;10.30;99.90;;;;;;4961041;29;20043;-90
2024/03/16 02:28:34;;;;;;;16.73;5.43;;;10.20;99.90;;;;;;4971840;29;20100;-90
2024/03/16 02:31:00;;;;;;;12.30;4.25;;;10.10;99.90;;;;;;4972459;29;20472;-91
2024/03/16 02:33:27;;;;;;;17.48;4.28;;;10.00;99.90;;;;;;4972196;29;20126;-90
2024/03/16 02:35:55;;;;;;;13.68;3.97;;;10.30;99.90;;;;;;4979313;29;20071;-90
2024/03/16 02:38:21;;;;;;;16.52;3.92;;;10.60;99.90;;;;;;4971448;29;20047;-91
2024/03/16 02:40:48;;;;;;;17.67;4.03;;;10.20;99.90;;;;;;4969801;29;20094;-90
2024/03/16 02:43:15;;;;;;;11.13;3.78;;;9.80;99.90;;;;;;4968132;29;20035;-89
2024/03/16 02:45:41;;;;;;;9.63;2.88;;;9.60;99.90;;;;;;4959474;29;20520;-90
2024/03/16 02:48:09;;;;;;;8.13;2.75;;;9.50;99.90;;;;;;4971951;29;20102;-90
2024/03/16 02:50:36;;;;;;;11.77;2.22;;;9.50;99.90;;;;;;4970096;29;20512;-90
2024/03/16 02:53:03;;;;;;;7.68;1.60;;;9.40;99.90;;;;;;4969371;29;20043;-90
2024/03/16 02:55:30;;;;;;;4.25;1.52;;;9.20;99.90;;;;;;4975180;29;20051;-90
2024/03/16 02:57:56;;;;;;;5.80;1.92;;;9.10;99.90;;;;;;4963884;29;20573;-90
2024/03/16 03:00:23;;;;;;;4.07;1.48;;;9.00;99.90;;;;;;4971253;29;20043;-90
2024/03/16 03:02:50;;;;;;;3.33;1.08;;;9.00;99.90;;;;;;4975169;29;20042;-90
2024/03/16 03:05:20;;;;;;;3.55;1.20;;;8.80;99.90;;;;;;4988339;28;20035;-90
2024/03/16 03:07:47;;;;;;;9.75;1.33;;;8.70;99.90;;;;;;4975116;29;20420;-91
2024/03/16 03:10:14;;;;;;;4.43;1.30;;;8.70;99.90;;;;;;4974975;29;20046;-90
2024/03/16 03:12:41;;;;;;;4.13;1.20;;;9.00;99.90;;;;;;4971304;29;20046;-90
2024/03/16 03:15:09;;;;;;;9.05;1.52;;;8.60;99.90;;;;;;4969098;29;20146;-90
2024/03/16 03:17:35;;;;;;;6.63;1.23;;;8.50;99.90;;;;;;4971960;29;20054;-89
2024/03/16 03:20:05;;;;;;;2.85;0.93;;;8.60;99.90;;;;;;4974348;29;20040;-90
2024/03/16 03:22:32;;;;;;;5.28;1.08;;;8.40;99.90;;;;;;4967418;29;20036;-90
2024/03/16 03:24:59;;;;;;;4.55;1.75;;;9.10;99.90;;;;;;4974916;29;20043;-90
2024/03/16 03:27:25;;;;;;;4.70;1.25;;;8.30;99.90;;;;;;4974850;29;20101;-91
2024/03/16 03:29:52;;;;;;;4.18;1.35;;;9.40;99.90;;;;;;4971138;29;20044;-90
2024/03/16 03:32:19;;;;;;;4.63;1.35;;;8.30;99.90;;;;;;4967244;29;20130;-90
2024/03/16 03:34:45;;;;;;;5.65;1.23;;;8.50;99.90;;;;;;4965288;29;20035;-90
2024/03/16 03:37:13;;;;;;;3.72;1.17;;;8.30;99.90;;;;;;4971910;29;20082;-91
2024/03/16 03:39:40;;;;;;;3.90;1.17;;;8.60;99.90;;;;;;4965447;29;20039;-90
2024/03/16 03:42:06;;;;;;;6.60;1.45;;;8.90;99.90;;;;;;4974720;29;20043;-90
2024/03/16 03:44:38;;;;;;;2.97;1.13;;;9.20;99.90;;;;;;4974605;29;20762;-91
2024/03/16 03:47:07;;;;;;;3.05;1.10;;;8.50;99.90;;;;;;4967622;29;20043;-91
2024/03/16 03:49:35;;;;;;;5.82;1.23;;;8.90;99.90;;;;;;4973994;29;20038;-91
2024/03/16 03:52:04;;;;;;;4.30;1.23;;;8.10;99.90;;;;;;4966325;29;20501;-91
2024/03/16 03:54:31;;;;;;;2.53;0.95;;;8.10;99.90;;;;;;4970551;29;20122;-91
2024/03/16 03:56:58;;;;;;;4.97;1.38;;;8.80;99.90;;;;;;4974462;29;20552;-91
2024/03/16 03:59:25;;;;;;;5.30;1.23;;;8.30;99.90;;;;;;4969900;29;20044;-91
2024/03/16 04:01:52;;;;;;;5.47;1.20;;;8.70;99.90;;;;;;4959994;29;20039;-91
2024/03/16 04:04:18;;;;;;;6.68;1.40;;;8.40;99.90;;;;;;4970665;29;20046;-91
2024/03/16 04:06:45;;;;;;;6.78;1.40;;;7.90;99.90;;;;;;4960611;29;20564;-91
2024/03/16 04:09:13;;;;;;;10.82;1.42;;;8.00;99.90;;;;;;4966030;29;20125;-91
2024/03/16 04:11:39;;;;;;;7.63;1.75;;;8.00;99.90;;;;;;4964141;29;20170;-91
2024/03/16 04:14:07;;;;;;;6.00;1.60;;;8.90;99.90;;;;;;4965345;29;20118;-90
2024/03/16 04:16:34;;;;;;;5.07;1.50;;;8.60;99.90;;;;;;4967427;29;20406;-90
2024/03/16 04:19:01;;;;;;;7.53;1.83;;;8.50;99.90;;;;;;4957813;29;20051;-91
2024/03/16 04:21:27;;;;;;;9.05;1.83;;;8.80;99.90;;;;;;4970149;29;20178;-90
2024/03/16 04:23:54;;;;;;;9.02;2.13;;;9.00;99.90;;;;;;4961352;29;20027;-91
2024/03/16 04:26:22;;;;;;;7.35;1.80;;;8.60;99.90;;;;;;4961901;29;20058;-91
2024/03/16 04:28:49;;;;;;;10.35;1.77;;;7.80;99.90;;;;;;4972643;29;20038;-91
2024/03/16 04:31:17;;;;;;;12.77;2.40;;;8.20;99.90;;;;;;4974291;29;20051;-90
2024/03/16 04:33:43;;;;;;;12.15;2.53;;;7.90;99.90;;;;;;4970576;29;20050;-91
2024/03/16 04:36:10;;;;;;;12.55;2.42;;;7.70;99.90;;;;;;4971423;29;20120;-91
2024/03/16 04:38:37;;;;;;;11.68;2.20;;;7.70;99.90;;;;;;4972985;29;20046;-90
2024/03/16 04:41:04;;;;;;;9.98;2.03;;;8.30;99.90;;;;;;4967933;29;20039;-91
2024/03/16 04:43:30;;;;;;;18.98;2.35;;;8.00;99.90;;;;;;4960485;29;20063;-91
2024/03/16 04:45:57;;;;;;;13.77;1.83;;;8.40;99.90;;;;;;4967639;29;20094;-91
2024/03/16 04:48:24;;;;;;;13.25;1.88;;;7.60;99.90;;;;;;4959016;29;20090;-89
2024/03/16 04:50:51;;;;;;;11.00;2.03;;;7.50;99.90;;;;;;4971672;29;20054;-91
2024/03/16 04:53:17;;;;;;;16.77;2.15;;;8.60;99.90;;;;;;4969250;29;20043;-90
2024/03/16 04:55:44;;;;;;;14.52;2.33;;;8.00;99.90;;;;;;4964333;29;20043;-91
2024/03/16 04:58:13;;;;;;;11.18;2.00;;;7.90;99.90;;;;;;4973373;29;20485;-90
2024/03/16 05:00:39;;;;;;;17.48;2.47;;;7.40;99.90;;;;;;4965232;29;20044;-90
2024/03/16 05:03:06;;;;;;;14.57;2.58;;;7.50;99.90;;;;;;4973353;29;20028;-90
2024/03/16 05:05:34;;;;;;;9.05;1.90;;;7.40;99.90;;;;;;4964374;29;20039;-91
2024/03/16 05:08:01;;;;;;;15.63;2.60;;;8.20;99.90;;;;;;4966789;29;20138;-91
2024/03/16 05:10:27;;;;;;;14.95;2.65;;;7.30;99.90;;;;;;4954421;29;20087;-90
2024/03/16 05:12:54;;;;;;;15.63;1.90;;;7.90;99.90;;;;;;4969933;29;20039;-91
2024/03/16 05:15:21;;;;;;;20.52;2.25;;;7.30;99.90;;;;;;4972842;29;20043;-90
2024/03/16 05:17:47;;;;;;;13.30;2.58;;;8.00;99.90;;;;;;4960485;29;20063;-90
2024/03/16 05:20:14;;;;;;;11.10;2.15;;;7.90;99.90;;;;;;4969176;29;20046;-90
2024/03/16 05:22:41;;;;;;;13.05;2.42;;;7.20;99.90;;;;;;4972847;29;20046;-90
2024/03/16 05:25:08;;;;;;;16.52;2.47;;;7.30;99.90;;;;;;4968716;29;20405;-91
2024/03/16 05:27:35;;;;;;;11.45;1.88;;;7.10;99.90;;;;;;4970581;29;20031;-90
2024/03/16 05:30:06;;;;;;;7.43;1.90;;;8.00;99.90;;;;;;4971891;29;20093;-91
2024/03/16 05:32:43;;;;;;;9.18;2.25;;;7.10;99.90;;;;;;4982082;29;20485;-90
2024/03/16 05:35:10;;;;;;;11.75;1.75;;;7.00;99.90;;;;;;4961099;29;20082;-90
2024/03/16 05:37:37;;;;;;;8.52;1.38;;;7.00;99.90;;;;;;4961524;29;20095;-90
2024/03/16 05:40:04;;;;;;;8.18;1.55;;;7.00;99.90;;;;;;4972691;29;20103;-91
2024/03/16 05:42:31;;;;;;;9.70;1.90;;;7.00;99.90;;;;;;4972842;29;20035;-90
2024/03/16 05:45:01;;;;;;;10.82;1.58;;;7.00;99.90;;;;;;4972952;29;20042;-90
2024/03/16 05:47:27;;;;;;;9.73;1.58;;;8.20;99.90;;;;;;4972451;29;20039;-91
2024/03/16 05:49:54;;;;;;;10.23;2.05;;;7.10;99.90;;;;;;4963518;29;20043;-90
2024/03/16 05:52:21;;;;;;;6.35;1.48;;;8.00;99.90;;;;;;4969099;29;20042;-90
2024/03/16 05:54:47;;;;;;;9.82;2.17;;;7.80;99.90;;;;;;4959562;29;20079;-89
2024/03/16 05:57:14;;;;;;;6.20;1.45;;;7.10;99.90;;;;;;4970937;29;20118;-89
2024/03/16 05:59:41;;;;;;;8.05;1.38;;;7.10;99.90;;;;;;4968690;29;20048;-89
2024/03/16 06:02:07;;;;;;;9.38;1.33;;;7.70;99.90;;;;;;4960051;29;20082;-90
2024/03/16 06:04:35;;;;;;;10.25;1.40;;;7.30;99.90;;;;;;4963848;29;20150;-91
2024/03/16 06:07:01;;;;;;;12.52;1.75;;;7.70;99.90;;;;;;4965129;29;20046;-90
2024/03/16 06:09:28;;;;;;;12.38;1.50;;;7.10;99.90;;;;;;4961078;29;20056;-90
2024/03/16 06:11:55;;;;;;;6.40;1.30;;;7.10;99.90;;;;;;4976409;29;20040;-90
2024/03/16 06:14:21;;;;;;;10.27;1.48;;;7.60;99.90;;;;;;4964547;29;20035;-89
2024/03/16 06:16:48;;;;;;;11.23;1.80;;;7.10;99.90;;;;;;4954159;29;20047;-90
2024/03/16 06:19:15;;;;;;;7.72;1.30;;;7.30;99.90;;;;;;4965739;29;20035;-91
2024/03/16 06:21:41;;;;;;;8.00;1.40;;;7.70;99.90;;;;;;4966484;29;20070;-90
2024/03/16 06:24:08;;;;;;;11.25;2.40;;;7.90;99.90;;;;;;4963019;29;20047;-92
2024/03/16 06:26:41;;;;;;;7.72;1.65;;;7.10;99.90;;;;;;4989657;28;20106;-90
2024/03/16 06:29:10;;;;;;;10.57;1.70;;;8.10;99.90;;;;;;4974840;29;20493;-91
2024/03/16 06:31:38;;;;;;;9.05;1.38;;;7.20;99.90;;;;;;4966844;29;20523;-89
2024/03/16 06:34:04;;;;;;;9.35;1.50;;;7.50;99.90;;;;;;4971315;29;20039;-94
2024/03/16 06:36:32;;;;;;;7.40;1.75;;;7.20;99.90;;;;;;4975452;29;20496;-95
2024/03/16 06:39:00;;;;;;;13.68;1.77;;;7.20;99.90;;;;;;4968219;29;20126;-94
2024/03/16 06:41:27;;;;;;;10.77;2.20;;;7.30;99.90;;;;;;4968028;29;20095;-95
2024/03/16 06:44:11;;;;;;;13.73;1.80;;;7.20;99.90;;;;;;4965587;29;20039;-94
2024/03/16 06:46:38;;;;;;;11.32;1.70;;;7.20;99.90;;;;;;4977935;29;20038;-94
2024/03/16 06:49:05;;;;;;;6.30;1.30;;;7.40;99.90;;;;;;4975849;29;20027;-95
2024/03/16 06:51:32;;;;;;;6.65;1.30;;;7.20;99.90;;;;;;4975873;29;20106;-94
2024/03/16 06:53:58;;;;;;;14.27;1.75;;;7.90;99.90;;;;;;4958085;29;20040;-94
2024/03/16 06:56:25;;;;;;;6.50;1.35;;;7.20;99.90;;;;;;4960777;29;20133;-93
2024/03/16 06:58:52;;;;;;;5.85;1.10;;;7.30;99.90;;;;;;4973395;29;20381;-95
2024/03/16 07:01:19;;;;;;;6.00;1.20;;;7.90;99.90;;;;;;4968874;29;20052;-94
2024/03/16 07:03:45;;;;;;;5.88;1.63;;;8.30;99.90;;;;;;4974337;28;20031;-94
2024/03/16 07:06:12;;;;;;;6.35;1.25;;;8.20;99.90;;;;;;4963082;29;20110;-93
2024/03/16 07:08:39;;;;;;;6.85;1.40;;;7.30;99.90;;;;;;4991304;29;20109;-94
2024/03/16 07:11:05;;;;;;;6.93;1.33;;;8.50;99.90;;;;;;4973360;29;20074;-94
2024/03/16 07:13:32;;;;;;;13.73;1.45;;;7.70;99.90;;;;;;4956462;29;20079;-94
2024/03/16 07:15:59;;;;;;;7.95;1.60;;;8.20;99.90;;;;;;4974349;29;20047;-94
2024/03/16 07:18:26;;;;;;;10.65;1.60;;;7.60;99.90;;;;;;4975504;29;20043;-94
2024/03/16 07:20:52;;;;;;;6.53;1.40;;;7.30;99.90;;;;;;4969163;29;20122;-95
2024/03/16 07:23:19;;;;;;;7.65;1.38;;;8.20;99.90;;;;;;4975012;29;20055;-94
2024/03/16 07:25:49;;;;;;;12.00;1.85;;;7.00;99.90;;;;;;4975037;29;20484;-94
2024/03/16 07:28:17;;;;;;;5.90;1.45;;;7.40;99.90;;;;;;4974271;29;20042;-95
2024/03/16 07:30:44;;;;;;;5.65;1.23;;;8.10;99.90;;;;;;4975665;29;20178;-93
2024/03/16 07:33:13;;;;;;;7.90;1.35;;;8.20;99.90;;;;;;4962531;29;20106;-94
2024/03/16 07:35:40;;;;;;;11.50;1.40;;;7.40;99.90;;;;;;4970363;29;20501;-94
2024/03/16 07:38:06;;;;;;;8.63;1.15;;;7.30;99.90;;;;;;4964792;29;20050;-95
2024/03/16 07:40:33;;;;;;;6.05;1.63;;;7.50;99.90;;;;;;4963460;29;20050;-94
2024/03/16 07:43:01;;;;;;;6.85;1.10;;;7.40;99.90;;;;;;4969498;29;20386;-94
2024/03/16 07:45:28;;;;;;;5.72;1.20;;;7.40;99.90;;;;;;4956971;29;20054;-94
2024/03/16 07:47:54;;;;;;;7.88;1.42;;;7.50;99.90;;;;;;4961971;29;20621;-95
2024/03/16 07:50:21;;;;;;;9.70;1.45;;;7.90;99.90;;;;;;4967739;29;20119;-94
2024/03/16 07:52:48;;;;;;;2.78;0.98;;;7.50;99.90;;;;;;4955711;29;20103;-95
2024/03/16 07:55:14;;;;;;;5.35;1.10;;;7.50;99.90;;;;;;4972741;29;20121;-93
2024/03/16 07:57:42;;;;;;;8.48;1.88;;;8.30;99.90;;;;;;4972225;29;20082;-93
2024/03/16 08:00:10;;;;;;;4.15;1.02;;;7.50;99.90;;;;;;4974748;29;20039;-95
2024/03/16 08:02:37;;;;;;;5.90;1.35;;;7.60;99.90;;;;;;4975113;29;20063;-94
2024/03/16 08:05:04;;;;;;;4.68;1.13;;;8.10;99.90;;;;;;4972715;29;20073;-94
2024/03/16 08:07:31;;;;;;;7.93;1.13;;;7.60;99.90;;;;;;4974443;29;20043;-93
2024/03/16 08:09:57;;;;;;;4.18;1.08;;;8.40;99.90;;;;;;4969069;29;20050;-94
2024/03/16 08:12:27;;;;;;;9.15;1.55;;;7.70;99.90;;;;;;4965582;29;20047;-94
2024/03/16 08:14:54;;;;;;;6.70;1.45;;;8.50;99.90;;;;;;4955153;29;20044;-94
2024/03/16 08:17:22;;;;;;;6.15;1.10;;;7.90;99.90;;;;;;4973641;29;20050;-94
2024/03/16 08:19:49;;;;;;;3.22;1.00;;;8.60;99.90;;;;;;4973901;29;20043;-94
2024/03/16 08:22:15;;;;;;;3.67;0.90;;;7.90;99.90;;;;;;4967732;29;20049;-94
2024/03/16 08:24:42;;;;;;;5.25;1.08;;;7.90;99.90;;;;;;4964525;29;20047;-93
2024/03/16 08:27:09;;;;;;;4.68;1.00;;;7.90;99.90;;;;;;4966093;29;20043;-94
2024/03/16 08:29:38;;;;;;;9.77;1.10;;;8.80;99.90;;;;;;4979141;29;20100;-94
2024/03/16 08:32:05;;;;;;;7.00;1.10;;;7.90;99.90;;;;;;4973571;29;20043;-94
2024/03/16 08:34:31;;;;;;;4.90;1.10;;;7.90;99.90;;;;;;4965564;29;20038;-93
2024/03/16 08:36:58;;;;;;;5.95;1.00;;;7.90;99.90;;;;;;4963206;29;20098;-93
2024/03/16 08:39:25;;;;;;;3.35;0.90;;;8.00;99.90;;;;;;4966481;29;20127;-94
2024/03/16 08:41:54;;;;;;;8.75;1.10;;;8.00;99.90;;;;;;4960883;29;20071;-94
2024/03/16 08:44:24;;;;;;;4.57;1.08;;;8.10;99.90;;;;;;4972636;29;20047;-94
2024/03/16 08:46:53;;;;;;;8.43;1.30;;;8.10;99.90;;;;;;4972740;29;20044;-94
2024/03/16 08:49:23;;;;;;;5.90;1.00;;;8.20;99.90;;;;;;4956242;29;20043;-93
2024/03/16 08:51:49;;;;;;;11.40;1.40;;;8.20;99.90;;;;;;4962156;29;20183;-94
2024/03/16 08:54:16;;;;;;;5.35;1.40;;;9.30;99.90;;;;;;4963324;29;20078;-94
2024/03/16 08:56:43;;;;;;;7.60;1.45;;;8.90;99.90;;;;;;4973466;29;20489;-94
2024/03/16 08:59:10;;;;;;;6.32;1.00;;;8.20;99.90;;;;;;4972868;29;20933;-94
2024/03/16 09:01:38;;;;;;;7.85;1.55;;;8.30;99.90;;;;;;4972882;29;20153;-95
2024/03/16 09:04:05;;;;;;;7.78;1.35;;;8.40;99.90;;;;;;4970438;29;20080;-94
2024/03/16 09:06:32;;;;;;;10.23;1.27;;;8.40;99.90;;;;;;4958814;29;20042;-94
2024/03/16 09:09:00;;;;;;;11.18;1.80;;;8.80;99.90;;;;;;4970028;29;20043;-94
2024/03/16 09:11:27;;;;;;;14.75;1.60;;;8.90;99.90;;;;;;4972012;29;20047;-94
2024/03/16 09:13:54;;;;;;;6.20;1.30;;;8.10;99.90;;;;;;4972918;29;20051;-94
2024/03/16 09:16:20;;;;;;;6.82;1.10;;;9.30;99.90;;;;;;4972559;29;20146;-93
2024/03/16 09:18:47;;;;;;;7.22;1.30;;;8.70;99.90;;;;;;4970900;29;20045;-93
2024/03/16 09:21:14;;;;;;;5.75;1.08;;;8.50;99.90;;;;;;4965342;29;20070;-93
2024/03/16 09:23:40;;;;;;;8.30;1.10;;;8.00;99.90;;;;;;4969713;29;20128;-93
2024/03/16 09:26:07;;;;;;;5.78;1.00;;;9.00;99.90;;;;;;4961993;29;20074;-93
2024/03/16 09:28:34;;;;;;;4.57;1.15;;;9.20;99.90;;;;;;4957424;29;20094;-93
2024/03/16 09:31:04;;;;;;;5.97;1.02;;;8.00;99.90;;;;;;4967629;29;20078;-94
2024/03/16 09:33:32;;;;;;;8.30;1.17;;;8.10;99.90;;;;;;4969858;29;20038;-94
2024/03/16 09:35:59;;;;;;;19.33;3.22;;;9.40;99.90;;;;;;4960839;29;20051;-94
2024/03/16 09:38:26;;;;;;;5.65;1.20;;;8.30;99.90;;;;;;4954747;29;20047;-93
2024/03/16 09:40:57;;;;;;;7.88;1.30;;;8.50;99.90;;;;;;4956010;29;20441;-95
2024/03/16 09:43:24;;;;;;;8.50;1.27;;;8.50;99.90;;;;;;4962395;29;20039;-93
2024/03/16 09:45:54;;;;;;;5.55;1.27;;;8.60;99.90;;;;;;4955995;29;20040;-94
2024/03/16 09:48:21;;;;;;;7.57;1.40;;;8.70;99.90;;;;;;4973402;29;20178;-94
2024/03/16 09:50:49;;;;;;;8.35;1.30;;;9.60;99.90;;;;;;4973097;29;20479;-94
2024/03/16 09:53:31;;;;;;;10.18;1.55;;;8.90;99.90;;;;;;4963195;29;20047;-94
2024/03/16 09:56:00;;;;;;;9.15;1.23;;;8.80;99.90;;;;;;4972785;29;20047;-90
2024/03/16 09:58:30;;;;;;;8.82;1.30;;;8.90;99.90;;;;;;4972783;29;20075;-94
2024/03/16 10:01:00;;;;;;;5.00;1.13;;;8.90;99.90;;;;;;4974642;29;20047;-93
2024/03/16 10:03:27;;;;;;;9.02;1.30;;;9.50;99.90;;;;;;4964173;29;20118;-93
2024/03/16 10:05:54;;;;;;;7.60;1.20;;;8.90;99.90;;;;;;4973847;29;20058;-93
2024/03/16 10:08:22;;;;;;;5.40;0.90;;;8.90;99.90;;;;;;4972298;29;20059;-92
2024/03/16 10:10:48;;;;;;;4.38;1.05;;;8.90;99.90;;;;;;4976629;29;20816;-92
2024/03/16 10:13:17;;;;;;;8.18;1.25;;;9.10;99.90;;;;;;4976608;29;20075;-93
2024/03/16 10:15:44;;;;;;;5.05;0.95;;;8.80;99.90;;;;;;4976399;29;20568;-93
2024/03/16 10:18:14;;;;;;;4.55;1.00;;;9.10;99.90;;;;;;4976632;29;20098;-93
2024/03/16 10:20:43;;;;;;;6.40;1.30;;;8.90;99.90;;;;;;4969747;29;20040;-93
2024/03/16 10:23:19;;;;;;;5.78;1.13;;;9.20;99.90;;;;;;4970840;29;20424;-93
2024/03/16 10:25:46;;;;;;;7.43;1.25;;;9.30;99.90;;;;;;4967405;29;20040;-93
2024/03/16 10:28:15;;;;;;;6.68;1.30;;;9.50;99.90;;;;;;4972727;29;20035;-94
2024/03/16 10:30:44;;;;;;;8.13;0.90;;;9.60;99.90;;;;;;4967254;29;20055;-93
2024/03/16 10:33:12;;;;;;;6.95;1.00;;;9.70;99.90;;;;;;4976211;29;20066;-92
2024/03/16 10:35:39;;;;;;;8.73;1.58;;;9.80;99.90;;;;;;4976208;29;20035;-94
2024/03/16 10:38:13;;;;;;;15.38;2.67;;;9.60;99.90;;;;;;4958777;29;20516;-92
2024/03/16 10:40:40;;;;;;;13.10;2.17;;;10.20;99.90;;;;;;4961056;29;20055;-93
2024/03/16 10:43:12;;;;;;;8.00;1.08;;;9.50;99.90;;;;;;4975874;29;20404;-94
2024/03/16 10:45:47;;;;;;;7.72;1.10;;;10.50;99.90;;;;;;4963862;29;20040;-92
2024/03/16 10:48:18;;;;;;;3.95;1.08;;;9.80;99.90;;;;;;4976097;29;20122;-93
2024/03/16 10:50:48;;;;;;;7.68;1.13;;;10.00;99.90;;;;;;4965199;29;20042;-93
2024/03/16 10:53:17;;;;;;;6.93;0.85;;;10.10;99.90;;;;;;4976212;29;20051;-93
2024/03/16 10:55:49;;;;;;;9.38;1.40;;;10.00;99.90;;;;;;4971935;29;20091;-93
2024/03/16 10:58:22;;;;;;;7.53;1.00;;;10.60;99.90;;;;;;4976363;29;20043;-94
2024/03/16 11:00:50;;;;;;;9.35;1.20;;;10.20;99.90;;;;;;4975551;29;20047;-93
2024/03/16 11:03:30;;;;;;;4.65;1.10;;;10.60;99.90;;;;;;4975587;29;20039;-93
2024/03/16 11:06:10;;;;;;;7.95;1.10;;;10.90;99.90;;;;;;4990429;28;20111;-93
2024/03/16 11:08:50;;;;;;;7.60;1.20;;;10.30;99.90;;;;;;4968016;29;20075;-92
2024/03/16 11:11:21;;;;;;;7.80;1.25;;;10.00;99.90;;;;;;4975290;28;20067;-93
2024/03/16 11:14:13;;;;;;;8.10;1.17;;;10.00;99.90;;;;;;4974380;29;20519;-92
2024/03/16 11:16:45;;;;;;;8.90;2.10;;;10.00;99.90;;;;;;4968012;29;20101;-93
2024/03/16 11:19:20;;;;;;;8.27;1.08;;;10.20;99.90;;;;;;4971171;29;20047;-93
2024/03/16 11:21:48;;;;;;;6.78;1.33;;;10.20;99.90;;;;;;4962571;29;20039;-93
2024/03/16 11:24:17;;;;;;;6.72;1.02;;;10.10;99.90;;;;;;4965718;29;20179;-93
2024/03/16 11:26:44;;;;;;;5.68;1.20;;;9.90;99.90;;;;;;4972578;29;20046;-92
2024/03/16 11:29:23;;;;;;;6.80;1.25;;;10.00;99.90;;;;;;4974931;29;20035;-93
2024/03/16 11:31:57;;;;;;;5.68;1.08;;;10.30;99.90;;;;;;4974781;29;20710;-91
2024/03/16 11:34:25;;;;;;;8.65;1.10;;;10.50;99.90;;;;;;4973737;29;20051;-92
2024/03/16 11:36:59;;;;;;;8.65;1.63;;;10.60;99.90;;;;;;4969919;29;20122;-93
2024/03/16 11:39:27;;;;;;;3.38;0.82;;;10.60;99.90;;;;;;4990800;29;20094;-93
2024/03/16 11:42:06;;;;;;;9.13;1.33;;;10.50;99.90;;;;;;4974565;29;20090;-92
2024/03/16 11:44:34;;;;;;;8.20;1.48;;;10.20;99.90;;;;;;4962258;29;20035;-92
2024/03/16 11:47:04;;;;;;;10.00;1.40;;;10.10;99.90;;;;;;4974830;29;20043;-92
2024/03/16 11:49:34;;;;;;;6.78;1.25;;;10.20;99.90;;;;;;4966354;29;20035;-92
2024/03/16 11:52:00;;;;;;;10.05;1.38;;;10.20;99.90;;;;;;4974471;29;20122;-92
2024/03/16 11:54:28;;;;;;;7.75;1.25;;;10.40;99.90;;;;;;4974601;29;20090;-92
2024/03/16 11:56:56;;;;;;;9.00;1.20;;;10.60;99.90;;;;;;4960949;29;20036;-93
2024/03/16 11:59:25;;;;;;;9.75;1.20;;;10.50;99.90;;;;;;4964792;29;20031;-92
2024/03/16 12:01:54;;;;;;;5.07;1.15;;;10.40;99.90;;;;;;4972531;29;20496;-92
2024/03/16 12:04:26;;;;;;;7.13;1.27;;;10.30;99.90;;;;;;4968296;29;20035;-92
2024/03/16 12:06:56;;;;;;;8.23;1.38;;;10.30;99.90;;;;;;4974270;29;20031;-92
2024/03/16 12:09:30;;;;;;;6.75;0.82;;;10.20;99.90;;;;;;4969455;29;20083;-92
2024/03/16 12:11:58;;;;;;;7.05;1.63;;;10.20;99.90;;;;;;4961144;29;20051;-92
2024/03/16 12:14:25;;;;;;;12.40;1.50;;;10.40;99.90;;;;;;4961564;29;20051;-92
2024/03/16 12:16:52;;;;;;;8.35;1.45;;;10.70;99.90;;;;;;4964552;29;20560;-92
2024/03/16 12:19:19;;;;;;;9.93;1.92;;;11.00;99.90;;;;;;4966125;29;20125;-92
2024/03/16 12:21:49;;;;;;;10.60;1.45;;;10.60;99.90;;;;;;4965587;29;20200;-92
2024/03/16 12:24:17;;;;;;;10.07;1.67;;;10.40;99.90;;;;;;4980185;28;20543;-92
2024/03/16 12:26:45;;;;;;;7.32;1.60;;;10.60;99.90;;;;;;4968962;29;20039;-93
2024/03/16 12:29:16;;;;;;;9.32;1.40;;;10.60;99.90;;;;;;4968733;29;20039;-91
2024/03/16 12:31:44;;;;;;;10.05;1.50;;;10.40;99.90;;;;;;4969433;29;20086;-92
2024/03/16 12:34:13;;;;;;;7.38;1.67;;;10.80;99.90;;;;;;4961887;29;20055;-92
2024/03/16 12:36:41;;;;;;;7.28;1.50;;;10.50;99.90;;;;;;4960158;29;20047;-91
2024/03/16 12:39:08;;;;;;;8.50;1.80;;;10.70;99.90;;;;;;4965675;29;20555;-92
2024/03/16 12:41:35;;;;;;;8.90;1.33;;;11.70;99.90;;;;;;4973482;29;20062;-91
2024/03/16 12:44:03;;;;;;;9.60;1.70;;;11.00;99.90;;;;;;4965762;29;20035;-91
2024/03/16 12:46:33;;;;;;;12.02;1.50;;;11.20;99.90;;;;;;4963374;29;20148;-91
2024/03/16 12:48:59;;;;;;;13.98;1.70;;;11.60;99.90;;;;;;4960427;29;20043;-91
2024/03/16 12:51:26;;;;;;;13.95;1.73;;;11.20;99.90;;;;;;4972256;29;20500;-91